Flight Track Log - Related Links

Times and Time Zones

All times are in EDT time to prevent confusion due to time zone crossing. See the CFS779 flight status page for this flight to view local times or setup timezone preferences in your user account.


Time Position Orientation Groundspeed Altitude Reporting Facility
EDT Latitude Longitude Course Direction KTS MPH feet Rate Location/Type
Thu 09:52:19 AM 47.5183 -117.8236 234° Southwest 153 176 6,600  Level Seattle Center
Thu 09:53:00 AM 47.4663 -117.8397 238° Southwest  Level FlightAware Approximate
Thu 09:53:20 AM 47.4969 -117.8867 243° Southwest 167 192 6,500  Level Seattle Center
Thu 09:54:00 AM 47.4435 -117.8930 238° Southwest  Level FlightAware Approximate
Thu 09:54:21 AM 47.4786 -117.9461 245° Southwest 163 188 6,500  Level Seattle Center
Thu 09:55:00 AM 47.4192 -117.9450 234° Southwest  Level FlightAware Approximate
Thu 09:55:21 AM 47.4594 -118.0053 244° Southwest 160 184 6,500  Level Seattle Center
Thu 09:56:00 AM 47.3939 -117.9957 234° Southwest  Level FlightAware Approximate
Thu 09:56:22 AM 47.4356 -118.0761 244° Southwest 161 185 6,500  Level Seattle Center
Thu 09:57:00 AM 47.3685 -118.0465 234° Southwest  Level FlightAware Approximate
Thu 09:57:23 AM 47.4164 -118.1333 244° Southwest 156 180 6,500  Level Seattle Center
Thu 09:58:24 AM 47.3975 -118.1897 244° Southwest 154 177 6,500  Level Seattle Center
Thu 09:59:25 AM 47.3778 -118.2464 243° Southwest 156 180 6,500  Level Seattle Center
Thu 10:00:26 AM 47.3589 -118.3044 244° Southwest 157 181 6,500  Level Seattle Center
Thu 10:01:26 AM 47.3389 -118.3606 242° Southwest 155 178 6,500  Level Seattle Center
Thu 10:02:27 AM 47.3189 -118.4178 243° Southwest 156 180 6,500  Level Seattle Center
Thu 10:03:28 AM 47.2994 -118.4744 243° Southwest 156 180 6,500  Level Seattle Center
Thu 10:04:29 AM 47.2803 -118.5342 245° Southwest 162 186 6,500  Level Seattle Center
Thu 10:05:30 AM 47.2611 -118.5914 244° Southwest 157 181 6,500  Level Seattle Center
Thu 10:06:31 AM 47.2417 -118.6478 243° Southwest 155 178 6,500  Level Seattle Center
Thu 10:07:32 AM 47.2217 -118.7050 243° Southwest 157 181 6,500  Level Seattle Center
Thu 10:08:32 AM 47.2019 -118.7628 243° Southwest 158 182 6,500  Level Seattle Center
Thu 10:09:33 AM 47.1822 -118.8211 244° Southwest 160 184 6,500  Level Seattle Center
Thu 10:10:34 AM 47.1583 -118.8900 243° Southwest 159 183 6,500  Level Seattle Center
Thu 10:11:35 AM 47.1381 -118.9469 242° Southwest 158 182 6,500  Level Seattle Center
Thu 10:12:36 AM 47.1178 -119.0044 243° Southwest 159 183 6,500  Level Seattle Center
Thu 10:13:37 AM 47.0978 -119.0622 243° Southwest 158 182 6,500  Level Seattle Center
Thu 10:14:38 AM 47.0789 -119.1200 244° Southwest 158 182 6,500  Level Seattle Center
Thu 10:15:39 AM 47.0589 -119.1767 243° Southwest 158 182 6,500  Level Seattle Center
Thu 10:16:40 AM 47.0389 -119.2336 243° Southwest 158 182 6,500  Level Seattle Center
Thu 10:17:41 AM 47.0189 -119.2906 243° Southwest 157 181 6,500  Level Seattle Center
Thu 10:18:42 AM 46.9992 -119.3472 243° Southwest 158 182 6,500  Level Seattle Center
Thu 10:19:42 AM 46.9794 -119.4036 243° Southwest 155 178 6,500  Level Seattle Center
Thu 10:20:43 AM 46.9589 -119.4600 242° Southwest 156 180 6,500  Level Seattle Center
Thu 10:21:44 AM 46.9389 -119.5175 243° Southwest 158 182 6,500  Level Seattle Center
Thu 10:22:45 AM 46.9183 -119.5739 242° Southwest 156 180 6,500  Level Seattle Center
Thu 10:23:46 AM 46.8947 -119.6425 243° Southwest 158 182 6,500  Level Seattle Center
Thu 10:24:47 AM 46.8753 -119.6994 243° Southwest 158 182 6,500  Level Seattle Center
Thu 10:25:48 AM 46.8539 -119.7553 241° Southwest 158 182 6,500  Level Seattle Center
Thu 10:26:49 AM 46.8336 -119.8117 242° Southwest 158 182 6,500  Level Seattle Center
Thu 10:27:50 AM 46.8133 -119.8683 242° Southwest 157 181 6,500  Level Seattle Center
Thu 10:28:51 AM 46.7928 -119.9247 242° Southwest 159 183 6,500  Level Seattle Center
Thu 10:29:52 AM 46.7733 -119.9800 243° Southwest 154 177 6,500 49 Level Seattle Center
Thu 10:30:53 AM 46.7525 -120.0367 242° Southwest 153 176 6,600 50 Climbing Seattle Center
Thu 10:31:53 AM 46.7319 -120.0942 242° Southwest 158 182 6,600  Level Seattle Center
Thu 10:32:54 AM 46.7119 -120.1492 242° Southwest 155 178 6,600 -98 Level Seattle Center
Thu 10:33:55 AM 46.6917 -120.2058 242° Southwest 158 182 6,400 -246 Descending Seattle Center
Thu 10:34:56 AM 46.6708 -120.2633 242° Southwest 162 186 6,100 -344 Descending Seattle Center
Thu 10:35:57 AM 46.6486 -120.3217 241° Southwest 165 190 5,700 -246 Descending Seattle Center
Thu 10:36:58 AM 46.6256 -120.3736 237° Southwest 153 176 5,600 -590 Descending Seattle Center
Thu 10:37:59 AM 46.5794 -120.4036 204° Southwest 165 190 4,500 -1,525 Descending Seattle Center
Thu 10:39:00 AM 46.5536 -120.4597 236° Southwest 170 196 2,500 -1,574 Descending Seattle Center
Thu 10:40:01 AM 46.5617 -120.5192 281° West 153 176 1,300 -738 Descending Seattle Center
Thu 10:41:02 AM 46.5681 -120.5442 290° West 56 64 1,000 -148 Descending Seattle Center
Thu 10:42:03 AM 46.5708 -120.5525 296° West 40 46 1,000  Level Seattle Center

Login

Don't have an account? Register now (free) for customized features, flight alerts, and more!